sensor_id;sensor_type;location;lat;lon;timestamp;temperature;humidity
22235;DHT22;11286;45.596;5.284;2022-09-21T00:00:22;13.10;99.90
22235;DHT22;11286;45.596;5.284;2022-09-21T00:02:48;13.00;99.90
22235;DHT22;11286;45.596;5.284;2022-09-21T00:05:14;13.10;99.90
22235;DHT22;11286;45.596;5.284;2022-09-21T00:07:39;12.90;99.90
22235;DHT22;11286;45.596;5.284;2022-09-21T00:10:06;13.40;99.90
22235;DHT22;11286;45.596;5.284;2022-09-21T00:12:32;13.00;99.90
22235;DHT22;11286;45.596;5.284;2022-09-21T00:14:58;13.10;99.90
22235;DHT22;11286;45.596;5.284;2022-09-21T00:17:23;12.90;99.90
22235;DHT22;11286;45.596;5.284;2022-09-21T00:19:49;12.90;99.90
22235;DHT22;11286;45.596;5.284;2022-09-21T00:22:14;13.00;99.90
22235;DHT22;11286;45.596;5.284;2022-09-21T00:24:40;13.00;99.90
22235;DHT22;11286;45.596;5.284;2022-09-21T00:27:06;13.00;99.90
22235;DHT22;11286;45.596;5.284;2022-09-21T00:29:31;12.90;99.90
22235;DHT22;11286;45.596;5.284;2022-09-21T00:31:57;13.00;99.90
22235;DHT22;11286;45.596;5.284;2022-09-21T00:34:22;12.80;99.90
22235;DHT22;11286;45.596;5.284;2022-09-21T00:36:49;12.80;99.90
22235;DHT22;11286;45.596;5.284;2022-09-21T00:39:14;12.80;99.90
22235;DHT22;11286;45.596;5.284;2022-09-21T00:41:40;13.00;99.90
22235;DHT22;11286;45.596;5.284;2022-09-21T00:46:57;12.50;99.90
22235;DHT22;11286;45.596;5.284;2022-09-21T00:49:26;12.60;99.90
22235;DHT22;11286;45.596;5.284;2022-09-21T00:51:53;12.50;99.90
22235;DHT22;11286;45.596;5.284;2022-09-21T00:54:24;12.60;99.90
22235;DHT22;11286;45.596;5.284;2022-09-21T00:56:53;12.60;99.90
22235;DHT22;11286;45.596;5.284;2022-09-21T00:59:19;12.60;99.90
22235;DHT22;11286;45.596;5.284;2022-09-21T01:01:46;12.50;99.90
22235;DHT22;11286;45.596;5.284;2022-09-21T01:04:13;12.40;99.90
22235;DHT22;11286;45.596;5.284;2022-09-21T01:06:40;12.40;99.90
22235;DHT22;11286;45.596;5.284;2022-09-21T01:09:06;12.30;99.90
22235;DHT22;11286;45.596;5.284;2022-09-21T01:12:10;12.20;99.90
22235;DHT22;11286;45.596;5.284;2022-09-21T01:18:16;12.30;99.90
22235;DHT22;11286;45.596;5.284;2022-09-21T01:20:21;12.10;99.90
22235;DHT22;11286;45.596;5.284;2022-09-21T01:28:50;11.90;99.90
22235;DHT22;11286;45.596;5.284;2022-09-21T01:31:15;12.30;99.90
22235;DHT22;11286;45.596;5.284;2022-09-21T01:33:45;12.00;99.90
22235;DHT22;11286;45.596;5.284;2022-09-21T01:36:15;12.20;99.90
22235;DHT22;11286;45.596;5.284;2022-09-21T01:38:52;11.90;99.90
22235;DHT22;11286;45.596;5.284;2022-09-21T01:41:22;11.80;99.90
22235;DHT22;11286;45.596;5.284;2022-09-21T01:43:54;11.70;99.90
22235;DHT22;11286;45.596;5.284;2022-09-21T01:46:26;11.70;99.90
22235;DHT22;11286;45.596;5.284;2022-09-21T01:48:57;11.70;99.90
22235;DHT22;11286;45.596;5.284;2022-09-21T01:51:26;11.70;99.90
22235;DHT22;11286;45.596;5.284;2022-09-21T01:54:00;11.80;99.90
22235;DHT22;11286;45.596;5.284;2022-09-21T01:57:01;11.80;99.90
22235;DHT22;11286;45.596;5.284;2022-09-21T01:59:39;11.80;99.90
22235;DHT22;11286;45.596;5.284;2022-09-21T02:02:14;11.60;99.90
22235;DHT22;11286;45.596;5.284;2022-09-21T02:04:42;11.50;99.90
22235;DHT22;11286;45.596;5.284;2022-09-21T02:07:07;11.80;99.90
22235;DHT22;11286;45.596;5.284;2022-09-21T02:09:36;11.60;99.90
22235;DHT22;11286;45.596;5.284;2022-09-21T02:12:03;11.50;99.90
22235;DHT22;11286;45.596;5.284;2022-09-21T02:14:29;11.60;99.90
22235;DHT22;11286;45.596;5.284;2022-09-21T02:19:52;11.50;99.90
22235;DHT22;11286;45.596;5.284;2022-09-21T02:22:44;11.60;99.90
22235;DHT22;11286;45.596;5.284;2022-09-21T02:25:34;11.40;99.90
22235;DHT22;11286;45.596;5.284;2022-09-21T02:28:28;11.30;99.90
22235;DHT22;11286;45.596;5.284;2022-09-21T02:31:30;11.50;99.90
22235;DHT22;11286;45.596;5.284;2022-09-21T02:34:10;11.30;99.90
22235;DHT22;11286;45.596;5.284;2022-09-21T02:36:48;11.60;99.90
22235;DHT22;11286;45.596;5.284;2022-09-21T02:39:43;11.40;99.90
22235;DHT22;11286;45.596;5.284;2022-09-21T02:42:13;11.20;99.90
22235;DHT22;11286;45.596;5.284;2022-09-21T02:44:51;11.10;99.90
22235;DHT22;11286;45.596;5.284;2022-09-21T02:47:47;11.10;99.90
22235;DHT22;11286;45.596;5.284;2022-09-21T02:50:34;11.30;99.90
22235;DHT22;11286;45.596;5.284;2022-09-21T02:53:02;11.30;99.90
22235;DHT22;11286;45.596;5.284;2022-09-21T02:55:30;11.00;99.90
22235;DHT22;11286;45.596;5.284;2022-09-21T02:57:58;11.20;99.90
22235;DHT22;11286;45.596;5.284;2022-09-21T03:00:26;11.10;99.90
22235;DHT22;11286;45.596;5.284;2022-09-21T03:02:52;11.10;99.90
22235;DHT22;11286;45.596;5.284;2022-09-21T03:05:17;11.40;99.90
22235;DHT22;11286;45.596;5.284;2022-09-21T03:07:43;11.20;99.90
22235;DHT22;11286;45.596;5.284;2022-09-21T03:10:09;11.40;99.90
22235;DHT22;11286;45.596;5.284;2022-09-21T03:12:35;10.90;99.90
22235;DHT22;11286;45.596;5.284;2022-09-21T03:15:01;10.90;99.90
22235;DHT22;11286;45.596;5.284;2022-09-21T03:17:27;11.00;99.90
22235;DHT22;11286;45.596;5.284;2022-09-21T03:19:52;11.30;99.90
22235;DHT22;11286;45.596;5.284;2022-09-21T03:22:22;10.80;99.90
22235;DHT22;11286;45.596;5.284;2022-09-21T03:24:48;10.70;99.90
22235;DHT22;11286;45.596;5.284;2022-09-21T03:27:19;11.00;99.90
22235;DHT22;11286;45.596;5.284;2022-09-21T03:29:45;10.80;99.90
22235;DHT22;11286;45.596;5.284;2022-09-21T03:32:12;11.10;99.90
22235;DHT22;11286;45.596;5.284;2022-09-21T03:34:39;10.90;99.90
22235;DHT22;11286;45.596;5.284;2022-09-21T03:37:06;10.60;99.90
22235;DHT22;11286;45.596;5.284;2022-09-21T03:39:32;11.00;99.90
22235;DHT22;11286;45.596;5.284;2022-09-21T03:41:58;10.60;99.90
22235;DHT22;11286;45.596;5.284;2022-09-21T03:44:24;11.00;99.90
22235;DHT22;11286;45.596;5.284;2022-09-21T03:46:51;10.50;99.90
22235;DHT22;11286;45.596;5.284;2022-09-21T03:49:17;10.80;99.90
22235;DHT22;11286;45.596;5.284;2022-09-21T03:51:43;10.70;99.90
22235;DHT22;11286;45.596;5.284;2022-09-21T03:54:09;10.40;99.90
22235;DHT22;11286;45.596;5.284;2022-09-21T03:56:34;10.40;99.90
22235;DHT22;11286;45.596;5.284;2022-09-21T03:59:00;10.40;99.90
22235;DHT22;11286;45.596;5.284;2022-09-21T04:01:26;10.40;99.90
22235;DHT22;11286;45.596;5.284;2022-09-21T04:03:51;10.40;99.90
22235;DHT22;11286;45.596;5.284;2022-09-21T04:06:17;10.40;99.90
22235;DHT22;11286;45.596;5.284;2022-09-21T04:08:43;10.60;99.90
22235;DHT22;11286;45.596;5.284;2022-09-21T04:11:14;10.20;99.90
22235;DHT22;11286;45.596;5.284;2022-09-21T04:13:41;10.70;99.90
22235;DHT22;11286;45.596;5.284;2022-09-21T04:16:07;10.40;99.90
22235;DHT22;11286;45.596;5.284;2022-09-21T04:18:34;10.50;99.90
22235;DHT22;11286;45.596;5.284;2022-09-21T04:21:00;10.70;99.90
22235;DHT22;11286;45.596;5.284;2022-09-21T04:23:25;10.40;99.90
22235;DHT22;11286;45.596;5.284;2022-09-21T04:25:53;10.30;99.90
22235;DHT22;11286;45.596;5.284;2022-09-21T04:28:20;10.10;99.90
22235;DHT22;11286;45.596;5.284;2022-09-21T04:30:45;10.10;99.90
22235;DHT22;11286;45.596;5.284;2022-09-21T04:33:11;10.50;99.90
22235;DHT22;11286;45.596;5.284;2022-09-21T04:35:38;10.10;99.90
22235;DHT22;11286;45.596;5.284;2022-09-21T04:38:04;10.40;99.90
22235;DHT22;11286;45.596;5.284;2022-09-21T04:40:29;10.10;99.90
22235;DHT22;11286;45.596;5.284;2022-09-21T04:42:55;10.30;99.90
22235;DHT22;11286;45.596;5.284;2022-09-21T04:45:22;10.40;99.90
22235;DHT22;11286;45.596;5.284;2022-09-21T04:47:48;10.10;99.90
22235;DHT22;11286;45.596;5.284;2022-09-21T04:50:14;10.10;99.90
22235;DHT22;11286;45.596;5.284;2022-09-21T04:52:40;9.90;99.90
22235;DHT22;11286;45.596;5.284;2022-09-21T04:55:06;9.90;99.90
22235;DHT22;11286;45.596;5.284;2022-09-21T04:57:32;9.90;99.90
22235;DHT22;11286;45.596;5.284;2022-09-21T04:59:58;9.80;99.90
22235;DHT22;11286;45.596;5.284;2022-09-21T05:02:24;10.10;99.90
22235;DHT22;11286;45.596;5.284;2022-09-21T05:04:49;9.90;99.90
22235;DHT22;11286;45.596;5.284;2022-09-21T05:07:16;9.80;99.90
22235;DHT22;11286;45.596;5.284;2022-09-21T05:09:41;9.80;99.90
22235;DHT22;11286;45.596;5.284;2022-09-21T05:12:25;9.90;99.90
22235;DHT22;11286;45.596;5.284;2022-09-21T05:14:51;9.90;99.90
22235;DHT22;11286;45.596;5.284;2022-09-21T05:17:17;9.80;99.90
22235;DHT22;11286;45.596;5.284;2022-09-21T05:19:42;9.80;99.90
22235;DHT22;11286;45.596;5.284;2022-09-21T05:22:08;9.90;99.90
22235;DHT22;11286;45.596;5.284;2022-09-21T05:24:34;10.10;99.90
22235;DHT22;11286;45.596;5.284;2022-09-21T05:27:00;10.10;99.90
22235;DHT22;11286;45.596;5.284;2022-09-21T05:29:26;9.90;99.90
22235;DHT22;11286;45.596;5.284;2022-09-21T05:34:32;10.00;99.90
22235;DHT22;11286;45.596;5.284;2022-09-21T05:39:31;10.10;99.90
22235;DHT22;11286;45.596;5.284;2022-09-21T05:41:57;9.90;99.90
22235;DHT22;11286;45.596;5.284;2022-09-21T05:44:23;10.10;99.90
22235;DHT22;11286;45.596;5.284;2022-09-21T05:47:01;10.10;99.90
22235;DHT22;11286;45.596;5.284;2022-09-21T05:49:46;10.00;99.90
22235;DHT22;11286;45.596;5.284;2022-09-21T05:52:34;10.00;99.90
22235;DHT22;11286;45.596;5.284;2022-09-21T06:03:47;9.80;99.90
22235;DHT22;11286;45.596;5.284;2022-09-21T06:06:16;10.00;99.90
22235;DHT22;11286;45.596;5.284;2022-09-21T06:08:42;10.10;99.90
22235;DHT22;11286;45.596;5.284;2022-09-21T06:11:07;10.00;99.90
22235;DHT22;11286;45.596;5.284;2022-09-21T06:13:33;10.30;99.90
22235;DHT22;11286;45.596;5.284;2022-09-21T06:16:03;10.10;99.90
22235;DHT22;11286;45.596;5.284;2022-09-21T06:18:29;10.20;99.90
22235;DHT22;11286;45.596;5.284;2022-09-21T06:20:54;10.60;99.90
22235;DHT22;11286;45.596;5.284;2022-09-21T06:23:20;10.90;99.90
22235;DHT22;11286;45.596;5.284;2022-09-21T06:25:52;10.60;99.90
22235;DHT22;11286;45.596;5.284;2022-09-21T06:28:18;10.80;99.90
22235;DHT22;11286;45.596;5.284;2022-09-21T06:30:50;10.60;99.90
22235;DHT22;11286;45.596;5.284;2022-09-21T06:33:15;10.70;99.90
22235;DHT22;11286;45.596;5.284;2022-09-21T06:35:54;11.20;99.90
22235;DHT22;11286;45.596;5.284;2022-09-21T06:38:20;11.00;99.90
22235;DHT22;11286;45.596;5.284;2022-09-21T06:40:46;11.50;99.90
22235;DHT22;11286;45.596;5.284;2022-09-21T06:43:12;11.30;99.90
22235;DHT22;11286;45.596;5.284;2022-09-21T06:45:37;11.10;99.90
22235;DHT22;11286;45.596;5.284;2022-09-21T06:48:03;11.20;99.90
22235;DHT22;11286;45.596;5.284;2022-09-21T06:50:28;11.30;99.90
22235;DHT22;11286;45.596;5.284;2022-09-21T06:52:54;11.30;99.90
22235;DHT22;11286;45.596;5.284;2022-09-21T06:55:19;11.40;99.90
22235;DHT22;11286;45.596;5.284;2022-09-21T06:57:45;11.40;99.90
22235;DHT22;11286;45.596;5.284;2022-09-21T07:00:12;11.40;99.90
22235;DHT22;11286;45.596;5.284;2022-09-21T07:02:42;11.30;99.90
22235;DHT22;11286;45.596;5.284;2022-09-21T07:05:08;11.50;99.90
22235;DHT22;11286;45.596;5.284;2022-09-21T07:07:34;11.80;99.90
22235;DHT22;11286;45.596;5.284;2022-09-21T07:10:01;11.60;99.90
22235;DHT22;11286;45.596;5.284;2022-09-21T07:12:28;11.50;99.90
22235;DHT22;11286;45.596;5.284;2022-09-21T07:14:53;11.60;99.90
22235;DHT22;11286;45.596;5.284;2022-09-21T07:17:19;11.80;99.90
22235;DHT22;11286;45.596;5.284;2022-09-21T07:19:45;11.60;99.90
22235;DHT22;11286;45.596;5.284;2022-09-21T07:22:11;11.60;99.90
22235;DHT22;11286;45.596;5.284;2022-09-21T07:24:36;11.60;99.90
22235;DHT22;11286;45.596;5.284;2022-09-21T07:27:02;11.60;99.90
22235;DHT22;11286;45.596;5.284;2022-09-21T07:29:27;11.70;99.90
22235;DHT22;11286;45.596;5.284;2022-09-21T07:31:53;11.70;99.90
22235;DHT22;11286;45.596;5.284;2022-09-21T07:34:19;11.70;99.90
22235;DHT22;11286;45.596;5.284;2022-09-21T07:36:44;11.80;99.90
22235;DHT22;11286;45.596;5.284;2022-09-21T07:39:10;11.90;99.90
22235;DHT22;11286;45.596;5.284;2022-09-21T07:41:36;11.90;99.90
22235;DHT22;11286;45.596;5.284;2022-09-21T07:44:02;11.90;99.90
22235;DHT22;11286;45.596;5.284;2022-09-21T07:46:28;11.90;99.90
22235;DHT22;11286;45.596;5.284;2022-09-21T07:48:55;11.90;99.90
22235;DHT22;11286;45.596;5.284;2022-09-21T07:51:21;12.00;99.90
22235;DHT22;11286;45.596;5.284;2022-09-21T07:53:52;12.10;99.90
22235;DHT22;11286;45.596;5.284;2022-09-21T07:56:18;12.50;99.90
22235;DHT22;11286;45.596;5.284;2022-09-21T07:58:44;12.40;99.90
22235;DHT22;11286;45.596;5.284;2022-09-21T08:01:29;12.50;99.90
22235;DHT22;11286;45.596;5.284;2022-09-21T08:03:56;12.20;99.90
22235;DHT22;11286;45.596;5.284;2022-09-21T08:06:23;12.30;99.90
22235;DHT22;11286;45.596;5.284;2022-09-21T08:08:50;12.40;99.90
22235;DHT22;11286;45.596;5.284;2022-09-21T08:11:18;12.60;99.90
22235;DHT22;11286;45.596;5.284;2022-09-21T08:13:44;12.60;99.90
22235;DHT22;11286;45.596;5.284;2022-09-21T08:16:10;12.60;99.90
22235;DHT22;11286;45.596;5.284;2022-09-21T08:18:37;12.70;99.90
22235;DHT22;11286;45.596;5.284;2022-09-21T08:21:04;12.80;99.90
22235;DHT22;11286;45.596;5.284;2022-09-21T08:23:30;12.80;99.90
22235;DHT22;11286;45.596;5.284;2022-09-21T08:25:59;12.80;99.90
22235;DHT22;11286;45.596;5.284;2022-09-21T08:28:26;12.90;99.90
22235;DHT22;11286;45.596;5.284;2022-09-21T08:30:51;12.90;99.90
22235;DHT22;11286;45.596;5.284;2022-09-21T08:33:17;13.30;99.90
22235;DHT22;11286;45.596;5.284;2022-09-21T08:35:51;13.00;99.90
22235;DHT22;11286;45.596;5.284;2022-09-21T08:38:16;13.00;99.90
22235;DHT22;11286;45.596;5.284;2022-09-21T08:40:42;12.90;99.90
22235;DHT22;11286;45.596;5.284;2022-09-21T08:43:11;13.00;99.90
22235;DHT22;11286;45.596;5.284;2022-09-21T08:45:41;13.20;99.90
22235;DHT22;11286;45.596;5.284;2022-09-21T08:48:21;13.20;99.90
22235;DHT22;11286;45.596;5.284;2022-09-21T08:50:53;13.50;99.90
22235;DHT22;11286;45.596;5.284;2022-09-21T08:53:32;13.70;99.90
22235;DHT22;11286;45.596;5.284;2022-09-21T08:55:59;14.10;99.90
22235;DHT22;11286;45.596;5.284;2022-09-21T08:58:28;14.50;99.90
22235;DHT22;11286;45.596;5.284;2022-09-21T09:04:25;24.50;99.90
22235;DHT22;11286;45.596;5.284;2022-09-21T09:15:25;31.20;99.90
22235;DHT22;11286;45.596;5.284;2022-09-21T09:18:22;31.80;99.90
22235;DHT22;11286;45.596;5.284;2022-09-21T09:20:59;31.10;99.90
22235;DHT22;11286;45.596;5.284;2022-09-21T09:23:31;30.80;99.90
22235;DHT22;11286;45.596;5.284;2022-09-21T09:26:03;31.70;99.90
22235;DHT22;11286;45.596;5.284;2022-09-21T09:28:34;32.00;99.90
22235;DHT22;11286;45.596;5.284;2022-09-21T09:31:18;31.90;99.90
22235;DHT22;11286;45.596;5.284;2022-09-21T09:36:41;32.40;99.90
22235;DHT22;11286;45.596;5.284;2022-09-21T09:39:14;33.10;99.90
22235;DHT22;11286;45.596;5.284;2022-09-21T09:52:28;33.60;99.90
22235;DHT22;11286;45.596;5.284;2022-09-21T09:54:54;33.70;99.90
22235;DHT22;11286;45.596;5.284;2022-09-21T09:57:27;34.70;99.90
22235;DHT22;11286;45.596;5.284;2022-09-21T10:00:16;34.60;99.90
22235;DHT22;11286;45.596;5.284;2022-09-21T10:02:52;34.90;99.90
22235;DHT22;11286;45.596;5.284;2022-09-21T10:05:38;35.10;99.90
22235;DHT22;11286;45.596;5.284;2022-09-21T10:11:12;35.20;99.90
22235;DHT22;11286;45.596;5.284;2022-09-21T10:13:41;36.10;99.90
22235;DHT22;11286;45.596;5.284;2022-09-21T10:16:21;35.00;99.90
22235;DHT22;11286;45.596;5.284;2022-09-21T10:18:58;35.20;99.90
22235;DHT22;11286;45.596;5.284;2022-09-21T10:23:59;34.10;99.90
22235;DHT22;11286;45.596;5.284;2022-09-21T10:26:31;31.00;99.90
22235;DHT22;11286;45.596;5.284;2022-09-21T10:29:00;34.30;99.90
22235;DHT22;11286;45.596;5.284;2022-09-21T10:31:29;35.40;99.90
22235;DHT22;11286;45.596;5.284;2022-09-21T10:34:13;37.40;99.90
22235;DHT22;11286;45.596;5.284;2022-09-21T10:36:39;37.80;99.90
22235;DHT22;11286;45.596;5.284;2022-09-21T10:39:20;38.10;99.90
22235;DHT22;11286;45.596;5.284;2022-09-21T10:41:51;38.70;99.90
22235;DHT22;11286;45.596;5.284;2022-09-21T10:44:19;39.50;99.90
22235;DHT22;11286;45.596;5.284;2022-09-21T10:46:47;38.50;99.90
22235;DHT22;11286;45.596;5.284;2022-09-21T10:49:18;39.30;99.90
22235;DHT22;11286;45.596;5.284;2022-09-21T10:51:47;40.00;99.90
22235;DHT22;11286;45.596;5.284;2022-09-21T10:54:24;40.10;99.90
22235;DHT22;11286;45.596;5.284;2022-09-21T10:56:58;40.40;99.90
22235;DHT22;11286;45.596;5.284;2022-09-21T10:59:32;39.70;99.90
22235;DHT22;11286;45.596;5.284;2022-09-21T11:01:59;38.10;99.90
22235;DHT22;11286;45.596;5.284;2022-09-21T11:07:12;38.30;99.90
22235;DHT22;11286;45.596;5.284;2022-09-21T11:20:58;39.10;99.90
22235;DHT22;11286;45.596;5.284;2022-09-21T11:26:32;39.10;99.90
22235;DHT22;11286;45.596;5.284;2022-09-21T11:29:04;38.90;99.90
22235;DHT22;11286;45.596;5.284;2022-09-21T11:34:30;38.90;99.90
22235;DHT22;11286;45.596;5.284;2022-09-21T11:37:17;39.60;99.90
22235;DHT22;11286;45.596;5.284;2022-09-21T11:45:07;38.70;99.90
22235;DHT22;11286;45.596;5.284;2022-09-21T11:56:37;38.60;99.90
22235;DHT22;11286;45.596;5.284;2022-09-21T11:59:39;38.60;99.90
22235;DHT22;11286;45.596;5.284;2022-09-21T12:02:23;39.80;99.90
22235;DHT22;11286;45.596;5.284;2022-09-21T12:18:52;38.20;99.90
22235;DHT22;11286;45.596;5.284;2022-09-21T12:21:39;37.50;99.90
22235;DHT22;11286;45.596;5.284;2022-09-21T12:24:21;38.40;99.90
22235;DHT22;11286;45.596;5.284;2022-09-21T12:26:55;38.90;99.90
22235;DHT22;11286;45.596;5.284;2022-09-21T12:29:34;38.50;99.90
22235;DHT22;11286;45.596;5.284;2022-09-21T12:32:20;39.00;99.90
22235;DHT22;11286;45.596;5.284;2022-09-21T12:34:56;37.90;99.90
22235;DHT22;11286;45.596;5.284;2022-09-21T12:37:28;38.10;99.80
22235;DHT22;11286;45.596;5.284;2022-09-21T12:39:58;37.60;99.90
22235;DHT22;11286;45.596;5.284;2022-09-21T12:42:40;37.30;99.90
22235;DHT22;11286;45.596;5.284;2022-09-21T12:45:33;35.40;99.90
22235;DHT22;11286;45.596;5.284;2022-09-21T12:48:23;36.30;99.90
22235;DHT22;11286;45.596;5.284;2022-09-21T12:50:57;36.90;99.90
22235;DHT22;11286;45.596;5.284;2022-09-21T12:53:29;35.50;99.90
22235;DHT22;11286;45.596;5.284;2022-09-21T12:56:06;36.50;99.90
22235;DHT22;11286;45.596;5.284;2022-09-21T13:01:36;37.20;99.90
22235;DHT22;11286;45.596;5.284;2022-09-21T13:09:58;35.70;99.90
22235;DHT22;11286;45.596;5.284;2022-09-21T13:12:30;35.70;99.90
22235;DHT22;11286;45.596;5.284;2022-09-21T13:15:24;35.00;99.90
22235;DHT22;11286;45.596;5.284;2022-09-21T13:18:03;34.70;99.90
22235;DHT22;11286;45.596;5.284;2022-09-21T13:20:35;34.90;99.90
22235;DHT22;11286;45.596;5.284;2022-09-21T13:23:02;34.80;99.90
22235;DHT22;11286;45.596;5.284;2022-09-21T13:25:32;33.40;99.90
22235;DHT22;11286;45.596;5.284;2022-09-21T13:28:15;33.50;99.90
22235;DHT22;11286;45.596;5.284;2022-09-21T13:57:26;32.40;99.90
22235;DHT22;11286;45.596;5.284;2022-09-21T14:02:43;33.20;99.90
22235;DHT22;11286;45.596;5.284;2022-09-21T14:07:56;33.10;99.90
22235;DHT22;11286;45.596;5.284;2022-09-21T14:10:24;32.80;99.90
22235;DHT22;11286;45.596;5.284;2022-09-21T14:12:50;32.30;99.90
22235;DHT22;11286;45.596;5.284;2022-09-21T14:17:42;32.40;99.90
22235;DHT22;11286;45.596;5.284;2022-09-21T14:28:14;31.70;99.90
22235;DHT22;11286;45.596;5.284;2022-09-21T14:30:49;31.90;99.90
22235;DHT22;11286;45.596;5.284;2022-09-21T14:33:46;31.40;99.90
22235;DHT22;11286;45.596;5.284;2022-09-21T14:36:17;30.50;99.90
22235;DHT22;11286;45.596;5.284;2022-09-21T14:38:51;31.10;99.90
22235;DHT22;11286;45.596;5.284;2022-09-21T14:41:22;30.30;99.90
22235;DHT22;11286;45.596;5.284;2022-09-21T14:43:51;30.50;99.90
22235;DHT22;11286;45.596;5.284;2022-09-21T14:46:55;30.90;99.90
22235;DHT22;11286;45.596;5.284;2022-09-21T14:52:34;30.50;99.90
22235;DHT22;11286;45.596;5.284;2022-09-21T15:00:23;29.50;99.90
22235;DHT22;11286;45.596;5.284;2022-09-21T15:06:18;30.40;99.90
22235;DHT22;11286;45.596;5.284;2022-09-21T15:11:54;29.90;99.90
22235;DHT22;11286;45.596;5.284;2022-09-21T15:16:56;29.50;99.90
22235;DHT22;11286;45.596;5.284;2022-09-21T15:19:24;29.90;99.90
22235;DHT22;11286;45.596;5.284;2022-09-21T15:24:53;28.80;99.90
22235;DHT22;11286;45.596;5.284;2022-09-21T15:27:21;29.30;99.90
22235;DHT22;11286;45.596;5.284;2022-09-21T15:29:50;29.20;99.90
22235;DHT22;11286;45.596;5.284;2022-09-21T15:32:39;28.80;99.90
22235;DHT22;11286;45.596;5.284;2022-09-21T15:35:18;29.50;99.90
22235;DHT22;11286;45.596;5.284;2022-09-21T15:37:45;29.20;99.90
22235;DHT22;11286;45.596;5.284;2022-09-21T15:40:25;29.20;99.90
22235;DHT22;11286;45.596;5.284;2022-09-21T15:43:00;29.60;99.90
22235;DHT22;11286;45.596;5.284;2022-09-21T15:45:28;28.70;99.90
22235;DHT22;11286;45.596;5.284;2022-09-21T15:47:54;29.10;99.90
22235;DHT22;11286;45.596;5.284;2022-09-21T15:50:22;29.10;99.90
22235;DHT22;11286;45.596;5.284;2022-09-21T15:53:00;29.00;99.90
22235;DHT22;11286;45.596;5.284;2022-09-21T15:55:27;28.90;99.90
22235;DHT22;11286;45.596;5.284;2022-09-21T15:57:54;28.50;99.90
22235;DHT22;11286;45.596;5.284;2022-09-21T16:00:24;28.60;99.90
22235;DHT22;11286;45.596;5.284;2022-09-21T16:05:30;28.50;99.90
22235;DHT22;11286;45.596;5.284;2022-09-21T16:08:06;28.60;99.90
22235;DHT22;11286;45.596;5.284;2022-09-21T16:13:18;28.40;99.90
22235;DHT22;11286;45.596;5.284;2022-09-21T16:18:52;27.70;99.90
22235;DHT22;11286;45.596;5.284;2022-09-21T16:21:21;27.70;99.90
22235;DHT22;11286;45.596;5.284;2022-09-21T16:23:49;27.70;99.90
22235;DHT22;11286;45.596;5.284;2022-09-21T16:26:22;27.60;99.90
22235;DHT22;11286;45.596;5.284;2022-09-21T16:28:55;27.30;99.90
22235;DHT22;11286;45.596;5.284;2022-09-21T16:31:32;27.40;99.90
22235;DHT22;11286;45.596;5.284;2022-09-21T16:34:04;27.40;99.90
22235;DHT22;11286;45.596;5.284;2022-09-21T16:36:38;27.30;99.90
22235;DHT22;11286;45.596;5.284;2022-09-21T16:39:08;27.20;99.90
22235;DHT22;11286;45.596;5.284;2022-09-21T16:41:43;27.00;99.90
22235;DHT22;11286;45.596;5.284;2022-09-21T16:44:21;27.00;99.90
22235;DHT22;11286;45.596;5.284;2022-09-21T16:46:52;26.80;99.90
22235;DHT22;11286;45.596;5.284;2022-09-21T16:49:19;26.50;99.90
22235;DHT22;11286;45.596;5.284;2022-09-21T16:51:47;26.20;99.90
22235;DHT22;11286;45.596;5.284;2022-09-21T16:54:14;26.30;99.90
22235;DHT22;11286;45.596;5.284;2022-09-21T16:56:40;26.20;99.90
22235;DHT22;11286;45.596;5.284;2022-09-21T16:59:13;26.20;99.90
22235;DHT22;11286;45.596;5.284;2022-09-21T17:01:48;25.70;99.90
22235;DHT22;11286;45.596;5.284;2022-09-21T17:04:16;25.90;99.90
22235;DHT22;11286;45.596;5.284;2022-09-21T17:06:42;25.90;99.90
22235;DHT22;11286;45.596;5.284;2022-09-21T17:09:23;25.60;99.90
22235;DHT22;11286;45.596;5.284;2022-09-21T17:11:49;25.40;99.90
22235;DHT22;11286;45.596;5.284;2022-09-21T17:14:16;25.10;99.90
22235;DHT22;11286;45.596;5.284;2022-09-21T17:16:55;25.00;99.90
22235;DHT22;11286;45.596;5.284;2022-09-21T17:19:21;24.90;99.90
22235;DHT22;11286;45.596;5.284;2022-09-21T17:21:47;24.60;99.90
22235;DHT22;11286;45.596;5.284;2022-09-21T17:24:14;24.40;99.90
22235;DHT22;11286;45.596;5.284;2022-09-21T17:26:40;24.20;99.90
22235;DHT22;11286;45.596;5.284;2022-09-21T17:29:19;23.80;99.90
22235;DHT22;11286;45.596;5.284;2022-09-21T17:31:48;23.50;99.90
22235;DHT22;11286;45.596;5.284;2022-09-21T17:34:26;23.30;99.90
22235;DHT22;11286;45.596;5.284;2022-09-21T17:36:53;22.90;99.90
22235;DHT22;11286;45.596;5.284;2022-09-21T17:39:20;22.50;99.90
22235;DHT22;11286;45.596;5.284;2022-09-21T17:47:16;21.90;99.90
22235;DHT22;11286;45.596;5.284;2022-09-21T17:49:44;21.90;99.90
22235;DHT22;11286;45.596;5.284;2022-09-21T17:52:18;21.70;99.90
22235;DHT22;11286;45.596;5.284;2022-09-21T17:55:03;21.60;99.90
22235;DHT22;11286;45.596;5.284;2022-09-21T18:03:19;21.40;99.90
22235;DHT22;11286;45.596;5.284;2022-09-21T18:05:47;21.20;99.90
22235;DHT22;11286;45.596;5.284;2022-09-21T18:08:13;21.00;99.90
22235;DHT22;11286;45.596;5.284;2022-09-21T18:10:41;20.90;99.90
22235;DHT22;11286;45.596;5.284;2022-09-21T18:16:04;20.40;99.90
22235;DHT22;11286;45.596;5.284;2022-09-21T18:18:43;20.20;99.90
22235;DHT22;11286;45.596;5.284;2022-09-21T18:21:18;20.00;99.90
22235;DHT22;11286;45.596;5.284;2022-09-21T18:26:16;19.60;99.90
22235;DHT22;11286;45.596;5.284;2022-09-21T18:28:44;19.60;99.90
22235;DHT22;11286;45.596;5.284;2022-09-21T18:39:36;19.00;99.90
22235;DHT22;11286;45.596;5.284;2022-09-21T18:55:28;18.60;99.90
22235;DHT22;11286;45.596;5.284;2022-09-21T18:57:58;18.60;99.90
22235;DHT22;11286;45.596;5.284;2022-09-21T19:00:25;18.50;99.90
22235;DHT22;11286;45.596;5.284;2022-09-21T19:03:00;18.50;99.90
22235;DHT22;11286;45.596;5.284;2022-09-21T19:05:26;18.30;99.90
22235;DHT22;11286;45.596;5.284;2022-09-21T19:08:14;18.10;99.90
22235;DHT22;11286;45.596;5.284;2022-09-21T19:10:45;17.90;99.90
22235;DHT22;11286;45.596;5.284;2022-09-21T19:13:26;18.00;99.90
22235;DHT22;11286;45.596;5.284;2022-09-21T19:16:10;17.70;99.90
22235;DHT22;11286;45.596;5.284;2022-09-21T19:21:41;17.70;99.90
22235;DHT22;11286;45.596;5.284;2022-09-21T19:31:57;17.10;99.90
22235;DHT22;11286;45.596;5.284;2022-09-21T19:34:23;16.90;99.90
22235;DHT22;11286;45.596;5.284;2022-09-21T19:36:48;16.90;99.90
22235;DHT22;11286;45.596;5.284;2022-09-21T19:39:15;17.10;99.90
22235;DHT22;11286;45.596;5.284;2022-09-21T19:45:01;16.60;99.90
22235;DHT22;11286;45.596;5.284;2022-09-21T19:47:52;16.80;99.90
22235;DHT22;11286;45.596;5.284;2022-09-21T19:50:29;16.70;99.90
22235;DHT22;11286;45.596;5.284;2022-09-21T19:52:58;16.80;99.90
22235;DHT22;11286;45.596;5.284;2022-09-21T19:55:44;16.60;99.90